Sumisemaru No.5 — JE3162 — position and weather

sailwx.info

Track history (hours):
 
Tides and Currents Weather Stations Pressure Air Temp Water Temp Dewpoint Dewpoint Depression Visibility Wind Speed Wind Dir Waves Ship Positions

Sumisemaru No.5

Last reported at 2015-Aug-29 04:09 UTC. Time now 2015-Aug-31 00:37 UTC.
Position N 34°18' E 134°59'.

Length 96 m; draft 6.5 m.

Type: Cargo ship. MMSI: 431700423.

Date/timePositionNaut miles runAvg speedWind from/ knotsBaromVisibWave heightAir tempDewpointWater temp
2015-Aug-29 04:09N 34°18' E 134°59'5 8.6
2015-Aug-29 03:33N 34°15' E 135°04'3 2.7
2015-Aug-29 02:26N 34°14' E 135°08'0 0.0
2015-Aug-29 01:26N 34°14' E 135°08'0 0.0
2015-Aug-29 00:29N 34°14' E 135°08'0 0.0
2015-Aug-28 23:29N 34°14' E 135°08'0 0.0
2015-Aug-28 22:29N 34°14' E 135°08'0 0.0
2015-Aug-28 21:32N 34°14' E 135°08'0 0.0
2015-Aug-28 20:29N 34°14' E 135°08'0 0.0
2015-Aug-28 19:32N 34°14' E 135°08'0 0.0
2015-Aug-28 18:32N 34°14' E 135°08'0 0.2
2015-Aug-28 17:33N 34°14' E 135°08'2 1.9
2015-Aug-28 16:25N 34°15' E 135°05'0 0.0
2015-Aug-28 15:28N 34°15' E 135°05'22 0.9
2015-Aug-27 14:12N 34°35' E 135°15'18 1.2
2015-Aug-26 23:21N 34°37' E 134°53'1012.3
2015-Aug-26 22:33N 34°35' E 135°05'1312.3
2015-Aug-26 21:32N 34°23' E 135°02'9 8.9
2015-Aug-26 20:33N 34°15' E 135°04'3 2.7
2015-Aug-26 19:31N 34°14' E 135°08'0 0.0
2015-Aug-26 18:28N 34°14' E 135°08'0 0.0
2015-Aug-26 17:31N 34°14' E 135°08'0 0.0
2015-Aug-26 16:31N 34°14' E 135°08'0 0.0
2015-Aug-26 15:33N 34°14' E 135°08'0 0.0
2015-Aug-26 14:33N 34°14' E 135°08'0 0.0
2015-Aug-26 13:33N 34°14' E 135°08'0 0.0
2015-Aug-26 12:33N 34°14' E 135°08'0 0.0
2015-Aug-26 11:33N 34°14' E 135°08'0 0.0
2015-Aug-26 10:33N 34°14' E 135°08'0 0.0
2015-Aug-26 09:33N 34°14' E 135°08'0 0.0
2015-Aug-26 08:30N 34°14' E 135°08'0 0.0
2015-Aug-26 07:33N 34°14' E 135°08'0 0.0
2015-Aug-26 06:33N 34°14' E 135°08'2 2.0
2015-Aug-26 05:33N 34°15' E 135°06'3 3.2
2015-Aug-26 04:32N 34°14' E 135°02'9 9.0
2015-Aug-26 03:33N 34°23' E 135°00'1211.5
2015-Aug-26 02:33N 34°30' E 135°11'1111.3
2015-Aug-26 01:33N 34°36' E 135°22'4 4.1
2015-Aug-26 00:33N 34°34' E 135°27'0 0.0
2015-Aug-25 23:29N 34°34' E 135°27'0 0.0
2015-Aug-25 22:29N 34°34' E 135°27'0 0.0
2015-Aug-25 21:29N 34°34' E 135°27'0 0.0
2015-Aug-25 20:29N 34°34' E 135°27'0 0.0
2015-Aug-25 19:29N 34°34' E 135°27'0 0.0
2015-Aug-25 18:23N 34°34' E 135°27'0 0.0
2015-Aug-25 17:23N 34°34' E 135°27'0 0.0
2015-Aug-25 16:11N 34°34' E 135°27'0 0.0
2015-Aug-25 15:29N 34°34' E 135°27'0 0.0
2015-Aug-25 14:29N 34°34' E 135°27'0 0.0
2015-Aug-25 13:29N 34°34' E 135°27'0 0.0
2015-Aug-25 12:29N 34°34' E 135°27'0 0.0
2015-Aug-25 11:29N 34°34' E 135°27'0 0.0
2015-Aug-25 10:23N 34°34' E 135°27'0 0.0
2015-Aug-25 09:11N 34°34' E 135°27'0 0.0
2015-Aug-25 04:11N 34°34' E 135°27'3 5.1
2015-Aug-25 03:33N 34°36' E 135°24'1111.1
2015-Aug-25 02:33N 34°35' E 135°10'1211.2
2015-Aug-25 01:31N 34°36' E 134°56'3 0.1
2015-Aug-24 05:12N 34°37' E 134°54'913.9
2015-Aug-24 04:33N 34°36' E 135°04'1312.9
2015-Aug-24 03:33N 34°23' E 135°02'1312.5
2015-Aug-24 02:33N 34°10' E 134°59'23110.0
2015-Aug-23 03:31N 34°59' E 139°33'1313.5
2015-Aug-23 02:33N 35°09' E 139°45'1312.7
2015-Aug-23 01:34N 35°21' E 139°42'1413.6
2015-Aug-23 00:34N 35°31' E 139°53'7 5.8
2015-Aug-22 23:25N 35°36' E 139°60'0 0.0
2015-Aug-22 22:33N 35°36' E 139°60'0 0.0
2015-Aug-22 21:33N 35°36' E 139°60'0 0.0
2015-Aug-22 20:33N 35°36' E 139°60'0 0.0
2015-Aug-22 19:33N 35°36' E 139°60'0 0.0
2015-Aug-22 18:33N 35°36' E 139°60'0 0.1
2015-Aug-22 17:33N 35°36' E 139°60'0 0.0
2015-Aug-22 16:33N 35°36' E 139°60'0 0.1
2015-Aug-22 15:33N 35°36' E 139°60'0 0.0
2015-Aug-22 14:33N 35°36' E 139°60'0 0.0
2015-Aug-22 13:33N 35°36' E 139°60'0 0.0
2015-Aug-22 12:33N 35°36' E 139°60'0 0.0
2015-Aug-22 11:33N 35°36' E 139°60'4 3.9
2015-Aug-22 10:32N 35°40' E 140°00'0 0.0
2015-Aug-22 09:26N 35°40' E 140°00'0 0.0
2015-Aug-22 08:32N 35°40' E 140°00'0 0.0
2015-Aug-22 07:32N 35°40' E 140°00'0 0.0
2015-Aug-22 06:32N 35°40' E 140°00'0 0.0
2015-Aug-22 05:26N 35°40' E 140°00'0 0.0
2015-Aug-22 04:32N 35°40' E 140°00'3 3.5
2015-Aug-22 03:33N 35°36' E 139°59'2 2.0
2015-Aug-22 02:31N 35°35' E 139°58'3 2.7
2015-Aug-22 01:33N 35°33' E 139°55'1313.4
2015-Aug-22 00:33N 35°22' E 139°45'1212.3
2015-Aug-21 23:33N 35°10' E 139°46'1312.9
2015-Aug-21 22:33N 34°57' E 139°43'13 9.8
2015-Aug-21 21:14N 34°51' E 139°57'811.2
2015-Aug-21 20:33N 34°55' E 140°05'1110.8
2015-Aug-21 19:33N 35°01' E 140°16'11 9.9
2015-Aug-21 18:24N 35°07' E 140°28'8 9.1
2015-Aug-21 17:33N 35°13' E 140°34'1110.5
2015-Aug-21 16:33N 35°22' E 140°41'1211.6
2015-Aug-21 15:33N 35°31' E 140°48'1311.5
2015-Aug-21 14:26N 35°42' E 140°56'1112.1
2015-Aug-21 13:33N 35°53' E 140°56'16 0.8
2015-Aug-20 16:33N 35°37' E 140°54'1212.2
2015-Aug-20 15:32N 35°27' E 140°46'5413.3
2015-Aug-20 11:30N 34°51' E 139°58'1212.6
2015-Aug-20 10:32N 34°45' E 139°45'24010.4
2015-Aug-19 11:24N 34°01' E 134°59'1011.7
2015-Aug-19 10:31N 34°12' E 135°02'6 5.8
2015-Aug-19 09:32N 34°14' E 135°08'0 0.0
2015-Aug-19 08:32N 34°14' E 135°08'0 0.0
2015-Aug-19 07:28N 34°14' E 135°08'0 0.0
2015-Aug-19 06:25N 34°14' E 135°08'0 0.0
2015-Aug-19 05:33N 34°14' E 135°08'0 0.0
2015-Aug-19 04:33N 34°14' E 135°08'  
Track history (hours):
 
Tides and Currents Weather Stations Pressure Air Temp Water Temp Dewpoint Dewpoint Depression Visibility Wind Speed Wind Dir Waves Ship Positions

Sumisemaru No.5

Last reported at 2015-Aug-29 04:09 UTC. Time now 2015-Aug-31 00:37 UTC.
Position N 34°18' E 134°59'.

Length 96 m; draft 6.5 m.

Type: Cargo ship. MMSI: 431700423.

Date/timePositionNaut miles runAvg speedWind from/ knotsBaromVisibWave heightAir tempDewpointWater temp
2015-Aug-29 04:09N 34°18' E 134°59'5 8.6
2015-Aug-29 03:33N 34°15' E 135°04'3 2.7
2015-Aug-29 02:26N 34°14' E 135°08'0 0.0
2015-Aug-29 01:26N 34°14' E 135°08'0 0.0
2015-Aug-29 00:29N 34°14' E 135°08'0 0.0
2015-Aug-28 23:29N 34°14' E 135°08'0 0.0
2015-Aug-28 22:29N 34°14' E 135°08'0 0.0
2015-Aug-28 21:32N 34°14' E 135°08'0 0.0
2015-Aug-28 20:29N 34°14' E 135°08'0 0.0
2015-Aug-28 19:32N 34°14' E 135°08'0 0.0
2015-Aug-28 18:32N 34°14' E 135°08'0 0.2
2015-Aug-28 17:33N 34°14' E 135°08'2 1.9
2015-Aug-28 16:25N 34°15' E 135°05'0 0.0
2015-Aug-28 15:28N 34°15' E 135°05'22 0.9
2015-Aug-27 14:12N 34°35' E 135°15'18 1.2
2015-Aug-26 23:21N 34°37' E 134°53'1012.3
2015-Aug-26 22:33N 34°35' E 135°05'1312.3
2015-Aug-26 21:32N 34°23' E 135°02'9 8.9
2015-Aug-26 20:33N 34°15' E 135°04'3 2.7
2015-Aug-26 19:31N 34°14' E 135°08'0 0.0
2015-Aug-26 18:28N 34°14' E 135°08'0 0.0
2015-Aug-26 17:31N 34°14' E 135°08'0 0.0
2015-Aug-26 16:31N 34°14' E 135°08'0 0.0
2015-Aug-26 15:33N 34°14' E 135°08'0 0.0
2015-Aug-26 14:33N 34°14' E 135°08'0 0.0
2015-Aug-26 13:33N 34°14' E 135°08'0 0.0
2015-Aug-26 12:33N 34°14' E 135°08'0 0.0
2015-Aug-26 11:33N 34°14' E 135°08'0 0.0
2015-Aug-26 10:33N 34°14' E 135°08'0 0.0
2015-Aug-26 09:33N 34°14' E 135°08'0 0.0
2015-Aug-26 08:30N 34°14' E 135°08'0 0.0
2015-Aug-26 07:33N 34°14' E 135°08'0 0.0
2015-Aug-26 06:33N 34°14' E 135°08'2 2.0
2015-Aug-26 05:33N 34°15' E 135°06'3 3.2
2015-Aug-26 04:32N 34°14' E 135°02'9 9.0
2015-Aug-26 03:33N 34°23' E 135°00'1211.5
2015-Aug-26 02:33N 34°30' E 135°11'1111.3
2015-Aug-26 01:33N 34°36' E 135°22'4 4.1
2015-Aug-26 00:33N 34°34' E 135°27'0 0.0
2015-Aug-25 23:29N 34°34' E 135°27'0 0.0
2015-Aug-25 22:29N 34°34' E 135°27'0 0.0
2015-Aug-25 21:29N 34°34' E 135°27'0 0.0
2015-Aug-25 20:29N 34°34' E 135°27'0 0.0
2015-Aug-25 19:29N 34°34' E 135°27'0 0.0
2015-Aug-25 18:23N 34°34' E 135°27'0 0.0
2015-Aug-25 17:23N 34°34' E 135°27'0 0.0
2015-Aug-25 16:11N 34°34' E 135°27'0 0.0
2015-Aug-25 15:29N 34°34' E 135°27'0 0.0
2015-Aug-25 14:29N 34°34' E 135°27'0 0.0
2015-Aug-25 13:29N 34°34' E 135°27'0 0.0
2015-Aug-25 12:29N 34°34' E 135°27'0 0.0
2015-Aug-25 11:29N 34°34' E 135°27'0 0.0
2015-Aug-25 10:23N 34°34' E 135°27'0 0.0
2015-Aug-25 09:11N 34°34' E 135°27'0 0.0
2015-Aug-25 04:11N 34°34' E 135°27'3 5.1
2015-Aug-25 03:33N 34°36' E 135°24'1111.1
2015-Aug-25 02:33N 34°35' E 135°10'1211.2
2015-Aug-25 01:31N 34°36' E 134°56'3 0.1
2015-Aug-24 05:12N 34°37' E 134°54'913.9
2015-Aug-24 04:33N 34°36' E 135°04'1312.9
2015-Aug-24 03:33N 34°23' E 135°02'1312.5
2015-Aug-24 02:33N 34°10' E 134°59'23110.0
2015-Aug-23 03:31N 34°59' E 139°33'1313.5
2015-Aug-23 02:33N 35°09' E 139°45'1312.7
2015-Aug-23 01:34N 35°21' E 139°42'1413.6
2015-Aug-23 00:34N 35°31' E 139°53'7 5.8
2015-Aug-22 23:25N 35°36' E 139°60'0 0.0
2015-Aug-22 22:33N 35°36' E 139°60'0 0.0
2015-Aug-22 21:33N 35°36' E 139°60'0 0.0
2015-Aug-22 20:33N 35°36' E 139°60'0 0.0
2015-Aug-22 19:33N 35°36' E 139°60'0 0.0
2015-Aug-22 18:33N 35°36' E 139°60'0 0.1
2015-Aug-22 17:33N 35°36' E 139°60'0 0.0
2015-Aug-22 16:33N 35°36' E 139°60'0 0.1
2015-Aug-22 15:33N 35°36' E 139°60'0 0.0
2015-Aug-22 14:33N 35°36' E 139°60'0 0.0
2015-Aug-22 13:33N 35°36' E 139°60'0 0.0
2015-Aug-22 12:33N 35°36' E 139°60'0 0.0
2015-Aug-22 11:33N 35°36' E 139°60'4 3.9
2015-Aug-22 10:32N 35°40' E 140°00'0 0.0
2015-Aug-22 09:26N 35°40' E 140°00'0 0.0
2015-Aug-22 08:32N 35°40' E 140°00'0 0.0
2015-Aug-22 07:32N 35°40' E 140°00'0 0.0
2015-Aug-22 06:32N 35°40' E 140°00'0 0.0
2015-Aug-22 05:26N 35°40' E 140°00'0 0.0
2015-Aug-22 04:32N 35°40' E 140°00'3 3.5
2015-Aug-22 03:33N 35°36' E 139°59'2 2.0
2015-Aug-22 02:31N 35°35' E 139°58'3 2.7
2015-Aug-22 01:33N 35°33' E 139°55'1313.4
2015-Aug-22 00:33N 35°22' E 139°45'1212.3
2015-Aug-21 23:33N 35°10' E 139°46'1312.9
2015-Aug-21 22:33N 34°57' E 139°43'13 9.8
2015-Aug-21 21:14N 34°51' E 139°57'811.2
2015-Aug-21 20:33N 34°55' E 140°05'1110.8
2015-Aug-21 19:33N 35°01' E 140°16'11 9.9
2015-Aug-21 18:24N 35°07' E 140°28'8 9.1
2015-Aug-21 17:33N 35°13' E 140°34'1110.5
2015-Aug-21 16:33N 35°22' E 140°41'1211.6
2015-Aug-21 15:33N 35°31' E 140°48'1311.5
2015-Aug-21 14:26N 35°42' E 140°56'1112.1
2015-Aug-21 13:33N 35°53' E 140°56'16 0.8
2015-Aug-20 16:33N 35°37' E 140°54'1212.2
2015-Aug-20 15:32N 35°27' E 140°46'5413.3
2015-Aug-20 11:30N 34°51' E 139°58'1212.6
2015-Aug-20 10:32N 34°45' E 139°45'24010.4
2015-Aug-19 11:24N 34°01' E 134°59'1011.7
2015-Aug-19 10:31N 34°12' E 135°02'6 5.8
2015-Aug-19 09:32N 34°14' E 135°08'0 0.0
2015-Aug-19 08:32N 34°14' E 135°08'0 0.0
2015-Aug-19 07:28N 34°14' E 135°08'0 0.0
2015-Aug-19 06:25N 34°14' E 135°08'0 0.0
2015-Aug-19 05:33N 34°14' E 135°08'0 0.0
2015-Aug-19 04:33N 34°14' E 135°08'  

Dump ship's entire track history